createdAt,value
2022-10-01T00:00:26.781Z,79.62
2022-10-01T00:02:57.083Z,79.41
2022-10-01T00:05:24.452Z,79.85
2022-10-01T00:07:51.557Z,79.98
2022-10-01T00:10:18.748Z,80.21
2022-10-01T00:12:47.535Z,80.08
2022-10-01T00:15:15.789Z,79.92
2022-10-01T00:17:43.629Z,79.93
2022-10-01T00:20:14.737Z,80.10
2022-10-01T00:22:42.025Z,80.14
2022-10-01T00:25:09.577Z,80.13
2022-10-01T00:27:38.160Z,80.07
2022-10-01T00:30:06.161Z,80.00
2022-10-01T00:32:33.462Z,80.09
2022-10-01T00:35:00.791Z,80.00
2022-10-01T00:37:28.203Z,80.27
2022-10-01T00:39:55.614Z,80.10
2022-10-01T00:42:24.459Z,80.35
2022-10-01T00:44:51.620Z,80.13
2022-10-01T00:47:21.513Z,80.17
2022-10-01T00:49:49.765Z,80.18
2022-10-01T00:52:18.813Z,80.56
2022-10-01T00:54:51.468Z,80.29
2022-10-01T00:57:20.879Z,80.37
2022-10-01T00:59:48.314Z,80.38
2022-10-01T01:02:15.610Z,80.47
2022-10-01T01:04:43.038Z,80.25
2022-10-01T01:07:10.319Z,80.24
2022-10-01T01:09:40.086Z,80.69
2022-10-01T01:12:25.692Z,80.62
2022-10-01T01:14:59.840Z,80.73
2022-10-01T01:17:32.202Z,80.57
2022-10-01T01:20:08.590Z,80.75
2022-10-01T01:22:37.831Z,80.75
2022-10-01T01:25:05.377Z,81.04
2022-10-01T01:27:46.372Z,80.76
2022-10-01T01:30:15.540Z,80.82
2022-10-01T01:32:43.009Z,80.93
2022-10-01T01:35:11.631Z,80.70
2022-10-01T01:37:45.366Z,80.43
2022-10-01T01:40:15.254Z,80.30
2022-10-01T01:42:44.356Z,80.42
2022-10-01T01:45:16.052Z,80.39
2022-10-01T01:47:44.152Z,80.75
2022-10-01T01:50:12.655Z,80.56
2022-10-01T01:52:40.074Z,80.80
2022-10-01T01:55:09.339Z,80.71
2022-10-01T01:57:38.034Z,80.56
2022-10-01T02:00:05.350Z,80.73
2022-10-01T02:02:36.458Z,81.05
2022-10-01T02:05:10.123Z,81.00
2022-10-01T02:07:46.700Z,81.41
2022-10-01T02:10:24.802Z,81.62
2022-10-01T02:13:02.307Z,82.18
2022-10-01T02:15:37.166Z,82.29
2022-10-01T02:18:30.364Z,82.40
2022-10-01T02:21:04.160Z,82.05
2022-10-01T02:23:38.379Z,82.31
2022-10-01T02:26:08.929Z,82.17
2022-10-01T02:28:38.281Z,82.28
2022-10-01T02:31:05.723Z,82.41
2022-10-01T02:33:35.602Z,82.65
2022-10-01T02:36:04.861Z,83.00
2022-10-01T02:38:33.732Z,83.08
2022-10-01T02:41:02.663Z,82.92
2022-10-01T02:43:33.813Z,83.29
2022-10-01T02:46:05.296Z,83.42
2022-10-01T02:48:32.573Z,83.32
2022-10-01T02:51:22.981Z,83.19
2022-10-01T02:53:53.030Z,83.49
2022-10-01T02:56:48.399Z,83.46
2022-10-01T02:59:16.015Z,83.34
2022-10-01T03:01:43.440Z,83.66
2022-10-01T03:04:10.709Z,83.70
2022-10-01T03:06:37.938Z,83.77
2022-10-01T03:09:05.466Z,84.00
2022-10-01T03:11:32.880Z,84.11
2022-10-01T03:14:01.137Z,84.17
2022-10-01T03:16:28.559Z,84.37
2022-10-01T03:18:55.966Z,84.11
2022-10-01T03:21:23.169Z,84.91
2022-10-01T03:23:50.368Z,85.11
2022-10-01T03:26:17.705Z,85.51
2022-10-01T03:28:45.005Z,85.92
2022-10-01T03:31:12.404Z,85.95
2022-10-01T03:33:41.309Z,86.55
2022-10-01T03:36:08.479Z,86.85
2022-10-01T03:38:35.836Z,87.32
2022-10-01T03:41:03.066Z,86.91
2022-10-01T03:43:30.549Z,87.25
2022-10-01T03:45:58.244Z,87.37
2022-10-01T03:48:25.419Z,87.84
2022-10-01T03:50:54.109Z,88.42
2022-10-01T03:53:21.699Z,88.70
2022-10-01T03:55:48.940Z,89.07
2022-10-01T03:58:16.894Z,89.21
2022-10-01T04:00:44.542Z,89.67
2022-10-01T04:03:11.912Z,89.52
2022-10-01T04:05:40.594Z,89.58
2022-10-01T04:08:08.126Z,89.53
2022-10-01T04:10:35.524Z,89.75
2022-10-01T04:13:02.927Z,89.90
2022-10-01T04:15:30.214Z,90.08
2022-10-01T04:17:58.222Z,89.92
2022-10-01T04:20:25.418Z,90.33
2022-10-01T04:22:53.321Z,91.00
2022-10-01T04:25:20.559Z,91.22
2022-10-01T04:27:57.941Z,91.26
2022-10-01T04:30:26.008Z,91.19
2022-10-01T04:32:53.000Z,91.28
2022-10-01T04:35:20.287Z,91.17
2022-10-01T04:37:47.941Z,91.15
2022-10-01T04:40:15.195Z,91.30
2022-10-01T04:42:43.765Z,91.44
2022-10-01T04:45:11.160Z,91.67
2022-10-01T04:47:38.872Z,91.70
2022-10-01T04:50:06.346Z,91.97
2022-10-01T04:52:33.389Z,92.29
2022-10-01T04:55:00.401Z,92.14
2022-10-01T04:57:28.785Z,92.27
2022-10-01T04:59:56.114Z,92.44
2022-10-01T05:02:23.357Z,92.19
2022-10-01T05:04:50.512Z,92.49
2022-10-01T05:07:19.601Z,92.52
2022-10-01T05:09:46.818Z,92.67
2022-10-01T05:12:14.842Z,93.15
2022-10-01T05:14:42.010Z,92.96
2022-10-01T05:17:09.500Z,93.37
2022-10-01T05:19:37.053Z,93.31
2022-10-01T05:22:04.507Z,93.52
2022-10-01T05:24:31.609Z,93.12
2022-10-01T05:26:58.834Z,93.74
2022-10-01T05:29:26.397Z,93.68
2022-10-01T05:31:53.562Z,94.06
2022-10-01T05:34:21.139Z,93.80
2022-10-01T05:36:48.408Z,93.89
2022-10-01T05:39:15.751Z,94.23
2022-10-01T05:41:43.145Z,94.04
2022-10-01T05:44:10.243Z,94.35
2022-10-01T05:46:37.943Z,94.55
2022-10-01T05:49:07.886Z,94.21
2022-10-01T05:51:36.667Z,94.18
2022-10-01T05:54:04.542Z,94.30
2022-10-01T05:56:31.912Z,94.20
2022-10-01T05:58:59.711Z,94.35
2022-10-01T06:01:26.775Z,94.67
2022-10-01T06:03:54.177Z,94.50
2022-10-01T06:06:25.096Z,94.51
2022-10-01T06:08:52.724Z,94.28
2022-10-01T06:11:22.759Z,94.07
2022-10-01T06:13:51.217Z,94.48
2022-10-01T06:16:18.486Z,94.89
2022-10-01T06:18:47.319Z,94.76
2022-10-01T06:21:14.505Z,94.98
2022-10-01T06:23:44.429Z,94.90
2022-10-01T06:26:11.928Z,94.77
2022-10-01T06:28:39.985Z,94.75
2022-10-01T06:31:07.144Z,94.54
2022-10-01T06:33:34.674Z,94.97
2022-10-01T06:36:03.477Z,94.88
2022-10-01T06:38:31.249Z,94.74
2022-10-01T06:40:59.616Z,95.24
2022-10-01T06:43:30.429Z,95.20
2022-10-01T06:46:00.875Z,95.14
2022-10-01T06:48:31.468Z,95.10
2022-10-01T06:50:59.421Z,95.33
2022-10-01T06:53:27.679Z,95.15
2022-10-01T06:55:55.304Z,94.88
2022-10-01T06:58:23.681Z,95.09
2022-10-01T07:00:51.177Z,95.43
2022-10-01T07:03:20.162Z,95.38
2022-10-01T07:05:48.038Z,95.11
2022-10-01T07:08:15.359Z,95.05
2022-10-01T07:10:44.323Z,94.79
2022-10-01T07:13:16.954Z,94.89
2022-10-01T07:15:45.159Z,94.80
2022-10-01T07:18:13.023Z,95.07
2022-10-01T07:20:40.984Z,94.68
2022-10-01T07:23:10.549Z,94.75
2022-10-01T07:25:39.002Z,94.92
2022-10-01T07:28:08.278Z,94.77
2022-10-01T07:30:35.533Z,94.59
2022-10-01T07:33:02.755Z,94.83
2022-10-01T07:35:29.940Z,94.63
2022-10-01T07:37:57.201Z,94.96
2022-10-01T07:40:24.565Z,94.61
2022-10-01T07:42:55.667Z,94.48
2022-10-01T07:45:23.462Z,94.63
2022-10-01T07:47:55.056Z,94.89
2022-10-01T07:50:22.584Z,94.31
2022-10-01T07:52:57.133Z,94.52
2022-10-01T07:55:27.373Z,94.22
2022-10-01T07:57:55.298Z,94.06
2022-10-01T08:00:23.357Z,94.47
2022-10-01T08:02:51.532Z,94.36
2022-10-01T08:05:19.291Z,94.58
2022-10-01T08:07:46.965Z,94.35
2022-10-01T08:10:15.329Z,93.90
2022-10-01T08:12:42.951Z,94.16
2022-10-01T08:15:19.071Z,94.15
2022-10-01T08:17:46.641Z,93.68
2022-10-01T08:20:15.269Z,93.83
2022-10-01T08:22:42.677Z,93.99
2022-10-01T08:25:10.517Z,94.00
2022-10-01T08:27:37.874Z,93.71
2022-10-01T08:30:05.649Z,93.59
2022-10-01T08:32:33.469Z,93.33
2022-10-01T08:35:01.498Z,93.11
2022-10-01T08:37:30.352Z,93.40
2022-10-01T08:39:57.592Z,93.25
2022-10-01T08:42:41.501Z,93.33
2022-10-01T08:45:23.870Z,92.96
2022-10-01T08:48:11.373Z,93.18
2022-10-01T08:50:41.381Z,93.41
2022-10-01T08:53:14.430Z,93.29
2022-10-01T08:55:41.846Z,93.49
2022-10-01T08:58:11.284Z,93.58
2022-10-01T09:00:40.508Z,93.59
2022-10-01T09:03:12.063Z,93.55
2022-10-01T09:05:59.096Z,93.68
2022-10-01T09:08:45.056Z,93.54
2022-10-01T09:11:22.392Z,93.27
2022-10-01T09:14:08.334Z,93.46
2022-10-01T09:16:52.804Z,93.20
2022-10-01T09:19:31.761Z,92.54
2022-10-01T09:22:02.413Z,92.89
2022-10-01T09:24:38.382Z,92.70
2022-10-01T09:27:10.875Z,92.63
2022-10-01T09:29:41.832Z,92.43
2022-10-01T09:32:15.129Z,92.24
2022-10-01T09:34:44.542Z,92.19
2022-10-01T09:37:18.470Z,92.21
2022-10-01T09:40:03.655Z,92.18
2022-10-01T09:42:31.720Z,92.14
2022-10-01T09:44:59.184Z,92.36
2022-10-01T09:47:26.629Z,92.23
2022-10-01T09:49:53.983Z,92.16
2022-10-01T09:52:41.538Z,91.82
2022-10-01T09:55:27.830Z,91.90
2022-10-01T09:58:09.776Z,91.80
2022-10-01T10:00:38.252Z,91.77
2022-10-01T10:03:05.516Z,91.75
2022-10-01T10:05:46.971Z,91.67
2022-10-01T10:08:30.594Z,91.82
2022-10-01T10:11:00.763Z,91.79
2022-10-01T10:13:35.465Z,91.61
2022-10-01T10:16:26.368Z,91.64
2022-10-01T10:18:57.892Z,91.65
2022-10-01T10:21:26.773Z,91.74
2022-10-01T10:23:59.478Z,91.30
2022-10-01T10:26:28.742Z,91.11
2022-10-01T10:28:58.854Z,91.17
2022-10-01T10:31:27.916Z,90.75
2022-10-01T10:34:27.861Z,90.84
2022-10-01T10:36:59.659Z,90.96
2022-10-01T10:39:30.762Z,90.79
2022-10-01T10:41:59.180Z,90.74
2022-10-01T10:44:30.481Z,90.50
2022-10-01T10:47:00.293Z,90.54
2022-10-01T10:49:30.184Z,90.31
2022-10-01T10:51:58.624Z,90.14
2022-10-01T10:54:33.743Z,90.01
2022-10-01T10:57:23.650Z,89.91
2022-10-01T11:00:08.726Z,89.76
2022-10-01T11:02:36.161Z,89.32
2022-10-01T11:05:04.818Z,89.34
2022-10-01T11:07:32.563Z,88.92
2022-10-01T11:10:11.771Z,89.03
2022-10-01T11:12:57.537Z,88.70
2022-10-01T11:15:30.996Z,89.08
2022-10-01T11:18:01.015Z,88.82
2022-10-01T11:20:34.752Z,88.87
2022-10-01T11:23:05.274Z,88.81
2022-10-01T11:25:51.065Z,89.20
2022-10-01T11:28:37.286Z,88.96
2022-10-01T11:31:25.113Z,88.51
2022-10-01T11:33:52.411Z,88.72
2022-10-01T11:36:19.650Z,88.87
2022-10-01T11:39:05.958Z,88.70
2022-10-01T11:41:39.814Z,88.47
2022-10-01T11:44:16.301Z,88.62
2022-10-01T11:46:54.320Z,88.08
2022-10-01T11:49:35.109Z,87.12
2022-10-01T11:52:11.588Z,86.92
2022-10-01T11:54:45.122Z,85.89
2022-10-01T11:57:32.614Z,86.06
2022-10-01T12:00:02.813Z,85.89
2022-10-01T12:02:39.920Z,85.70
2022-10-01T12:05:07.322Z,85.27
2022-10-01T12:07:53.262Z,84.99
2022-10-01T12:10:40.805Z,84.81
2022-10-01T12:13:13.920Z,84.78
2022-10-01T12:15:44.491Z,84.73
2022-10-01T12:18:12.875Z,84.50
2022-10-01T12:20:43.178Z,84.54
2022-10-01T12:23:36.869Z,84.72
2022-10-01T12:26:16.351Z,84.71
2022-10-01T12:28:56.678Z,84.75
2022-10-01T12:31:50.014Z,84.78
2022-10-01T12:34:17.517Z,84.63
2022-10-01T12:36:56.245Z,84.77
2022-10-01T12:39:32.253Z,84.55
2022-10-01T12:42:11.940Z,84.74
2022-10-01T12:44:46.179Z,84.72
2022-10-01T12:47:36.629Z,84.70
2022-10-01T12:50:15.908Z,84.33
2022-10-01T12:52:53.938Z,83.80
2022-10-01T12:55:39.519Z,83.52
2022-10-01T12:58:24.447Z,83.61
2022-10-01T13:01:04.799Z,83.68
2022-10-01T13:03:31.909Z,84.03
2022-10-01T13:05:59.021Z,84.17
2022-10-01T13:08:47.836Z,84.13
2022-10-01T13:11:28.738Z,84.24
2022-10-01T13:13:57.223Z,84.03
2022-10-01T13:16:39.932Z,84.03
2022-10-01T13:19:35.272Z,83.67
2022-10-01T13:22:07.858Z,84.07
2022-10-01T13:24:35.126Z,83.89
2022-10-01T13:27:05.509Z,83.97
2022-10-01T13:29:37.849Z,84.00
2022-10-01T13:32:26.192Z,84.04
2022-10-01T13:34:53.979Z,83.97
2022-10-01T13:37:30.440Z,83.74
2022-10-01T13:39:58.690Z,84.04
2022-10-01T13:42:28.048Z,83.98
2022-10-01T13:44:57.041Z,83.90
2022-10-01T13:47:25.287Z,83.83
2022-10-01T13:50:06.284Z,83.91
2022-10-01T13:52:34.254Z,84.00
2022-10-01T13:55:02.139Z,84.05
2022-10-01T13:57:37.707Z,84.14
2022-10-01T14:00:04.997Z,84.09
2022-10-01T14:02:37.302Z,84.10
2022-10-01T14:05:23.541Z,84.09
2022-10-01T14:07:55.309Z,83.99
2022-10-01T14:10:23.617Z,84.27
2022-10-01T14:13:09.699Z,84.24
2022-10-01T14:15:58.885Z,84.01
2022-10-01T14:18:28.876Z,83.94
2022-10-01T14:21:11.464Z,83.99
2022-10-01T14:23:44.661Z,84.03
2022-10-01T14:26:17.263Z,84.03
2022-10-01T14:29:10.896Z,83.99
2022-10-01T14:31:50.869Z,84.31
2022-10-01T14:34:18.840Z,84.29
2022-10-01T14:36:48.702Z,84.45
2022-10-01T14:39:23.638Z,84.54
2022-10-01T14:41:52.580Z,84.60
2022-10-01T14:44:22.209Z,84.57
2022-10-01T14:46:50.417Z,84.42
2022-10-01T14:49:23.532Z,84.62
2022-10-01T14:52:11.129Z,84.41
2022-10-01T14:54:47.730Z,84.32
2022-10-01T14:57:19.320Z,84.23
2022-10-01T14:59:48.170Z,84.56
2022-10-01T15:02:23.373Z,84.50
2022-10-01T15:04:52.501Z,84.65
2022-10-01T15:07:19.801Z,84.74
2022-10-01T15:09:48.232Z,84.84
2022-10-01T15:12:16.934Z,84.93
2022-10-01T15:14:44.954Z,85.03
2022-10-01T15:17:26.882Z,85.21
2022-10-01T15:19:55.571Z,85.36
2022-10-01T15:22:28.570Z,85.58
2022-10-01T15:24:59.748Z,85.61
2022-10-01T15:27:27.281Z,85.68
2022-10-01T15:29:56.856Z,85.50
2022-10-01T15:32:24.408Z,85.78
2022-10-01T15:34:53.202Z,85.84
2022-10-01T15:37:38.578Z,85.84
2022-10-01T15:40:06.959Z,86.01
2022-10-01T15:42:34.989Z,86.05
2022-10-01T15:45:08.866Z,86.06
2022-10-01T15:47:40.096Z,86.15
2022-10-01T15:50:10.101Z,86.19
2022-10-01T15:52:51.453Z,86.17
2022-10-01T15:55:24.146Z,86.23
2022-10-01T15:58:17.783Z,86.43
2022-10-01T16:00:48.098Z,86.47
2022-10-01T16:03:23.485Z,86.39
2022-10-01T16:05:51.664Z,86.35
2022-10-01T16:08:21.993Z,86.25
2022-10-01T16:11:08.084Z,86.39
2022-10-01T16:13:38.857Z,86.38
2022-10-01T16:16:19.601Z,86.39
2022-10-01T16:18:56.406Z,86.32
2022-10-01T16:21:24.437Z,86.40
2022-10-01T16:23:53.212Z,86.41
2022-10-01T16:26:32.780Z,86.59
2022-10-01T16:29:01.695Z,86.51
2022-10-01T16:31:29.658Z,86.55
2022-10-01T16:33:57.067Z,86.65
2022-10-01T16:36:26.348Z,86.83
2022-10-01T16:38:53.782Z,86.95
2022-10-01T16:41:25.582Z,86.82
2022-10-01T16:43:54.394Z,86.77
2022-10-01T16:46:21.676Z,86.61
2022-10-01T16:48:49.715Z,86.58
2022-10-01T16:51:16.935Z,86.66
2022-10-01T16:53:44.268Z,86.78
2022-10-01T16:56:12.377Z,86.74
2022-10-01T16:58:40.222Z,86.51
2022-10-01T17:01:12.034Z,86.42
2022-10-01T17:03:40.288Z,86.42
2022-10-01T17:06:07.521Z,86.64
2022-10-01T17:08:34.837Z,86.38
2022-10-01T17:11:03.019Z,86.45
2022-10-01T17:13:32.928Z,86.47
2022-10-01T17:16:00.880Z,86.56
2022-10-01T17:18:28.769Z,86.38
2022-10-01T17:20:56.414Z,86.45
2022-10-01T17:25:51.287Z,86.57
2022-10-01T17:28:20.108Z,86.42
2022-10-01T17:30:48.293Z,86.29
2022-10-01T17:33:16.466Z,86.37
2022-10-01T17:35:44.683Z,86.37
2022-10-01T17:38:12.723Z,86.41
2022-10-01T17:40:41.686Z,86.36
2022-10-01T17:43:13.073Z,86.69
2022-10-01T17:45:40.454Z,86.46
2022-10-01T17:48:08.168Z,86.73
2022-10-01T17:50:35.601Z,86.92
2022-10-01T17:53:02.795Z,86.40
2022-10-01T17:55:30.385Z,86.56
2022-10-01T17:57:57.522Z,86.55
2022-10-01T18:00:24.886Z,86.55
2022-10-01T18:02:52.218Z,86.46
2022-10-01T18:07:47.099Z,86.79
2022-10-01T18:10:14.457Z,86.69
2022-10-01T18:12:41.777Z,86.69
2022-10-01T18:15:09.427Z,86.90
2022-10-01T18:17:43.216Z,86.90
2022-10-01T18:20:10.968Z,86.93
2022-10-01T18:22:38.393Z,86.74
2022-10-01T18:25:06.004Z,86.92
2022-10-01T18:27:33.162Z,86.81
2022-10-01T18:30:00.288Z,86.79
2022-10-01T18:32:31.905Z,86.74
2022-10-01T18:35:00.140Z,86.82
2022-10-01T18:37:41.270Z,87.13
2022-10-01T18:40:12.788Z,87.39
2022-10-01T18:42:47.060Z,87.59
2022-10-01T18:45:16.490Z,87.82
2022-10-01T18:47:52.843Z,87.88
2022-10-01T18:50:22.952Z,88.08
2022-10-01T18:53:11.272Z,88.00
2022-10-01T18:55:49.117Z,89.35
2022-10-01T18:58:16.888Z,90.66
2022-10-01T19:00:49.323Z,92.04
2022-10-01T19:03:24.713Z,93.11
2022-10-01T19:06:10.562Z,93.95
2022-10-01T19:08:48.512Z,95.34
2022-10-01T19:11:25.627Z,96.30
2022-10-01T19:13:55.685Z,97.12
2022-10-01T19:16:23.047Z,97.57
2022-10-01T19:18:59.329Z,98.00
2022-10-01T19:21:52.322Z,98.63
2022-10-01T19:24:20.777Z,99.34
2022-10-01T19:26:54.349Z,99.90
2022-10-01T19:29:25.025Z,100.00
2022-10-01T19:31:56.707Z,100.00
2022-10-01T19:34:30.318Z,100.00
2022-10-01T19:37:03.844Z,100.00
2022-10-01T19:39:35.071Z,100.00
2022-10-01T19:42:05.873Z,100.00
2022-10-01T19:44:56.563Z,100.00
2022-10-01T19:47:33.027Z,100.00
2022-10-01T19:50:06.760Z,100.00
2022-10-01T19:52:38.196Z,100.00
2022-10-01T19:55:12.877Z,100.00
2022-10-01T19:57:41.588Z,100.00
2022-10-01T20:00:17.739Z,100.00
2022-10-01T20:03:04.179Z,100.00
2022-10-01T20:05:52.543Z,100.00
2022-10-01T20:08:34.215Z,100.00
2022-10-01T20:11:11.245Z,100.00
2022-10-01T20:14:01.741Z,100.00
2022-10-01T20:16:32.527Z,100.00
2022-10-01T20:18:59.921Z,100.00
2022-10-01T20:21:45.732Z,100.00
2022-10-01T20:24:31.613Z,100.00
2022-10-01T20:27:14.054Z,100.00
2022-10-01T20:30:04.206Z,100.00
2022-10-01T20:32:47.170Z,100.00
2022-10-01T20:35:20.952Z,100.00
2022-10-01T20:37:59.493Z,100.00
2022-10-01T20:40:29.103Z,100.00
2022-10-01T20:43:06.300Z,100.00
2022-10-01T20:45:35.537Z,100.00
2022-10-01T20:48:14.532Z,100.00
2022-10-01T20:50:46.417Z,100.00
2022-10-01T20:53:25.152Z,100.00
2022-10-01T20:56:01.707Z,100.00
2022-10-01T20:58:31.668Z,100.00
2022-10-01T21:01:03.112Z,100.00
2022-10-01T21:03:32.225Z,100.00
2022-10-01T21:06:08.262Z,100.00
2022-10-01T21:08:57.657Z,100.00
2022-10-01T21:11:32.189Z,100.00
2022-10-01T21:14:19.528Z,100.00
2022-10-01T21:16:53.147Z,100.00
2022-10-01T21:19:39.121Z,100.00
2022-10-01T21:22:21.795Z,100.00
2022-10-01T21:24:52.328Z,100.00
2022-10-01T21:27:35.110Z,100.00
2022-10-01T21:30:02.510Z,100.00
2022-10-01T21:32:36.851Z,100.00
2022-10-01T21:35:13.933Z,100.00
2022-10-01T21:37:43.173Z,100.00
2022-10-01T21:40:46.398Z,100.00
2022-10-01T21:43:19.152Z,100.00
2022-10-01T21:46:03.221Z,100.00
2022-10-01T21:48:39.009Z,100.00
2022-10-01T21:51:15.338Z,100.00
2022-10-01T21:53:58.381Z,100.00
2022-10-01T21:56:26.649Z,100.00
2022-10-01T21:59:13.106Z,100.00
2022-10-01T22:01:48.038Z,100.00
2022-10-01T22:04:22.326Z,100.00
2022-10-01T22:06:58.414Z,100.00
2022-10-01T22:09:32.031Z,100.00
2022-10-01T22:12:00.686Z,100.00
2022-10-01T22:14:28.030Z,100.00
2022-10-01T22:17:03.688Z,100.00
2022-10-01T22:19:37.439Z,100.00
2022-10-01T22:22:05.064Z,100.00
2022-10-01T22:24:36.856Z,100.00
2022-10-01T22:27:04.056Z,100.00
2022-10-01T22:29:31.924Z,100.00
2022-10-01T22:32:02.412Z,100.00
2022-10-01T22:34:33.800Z,100.00
2022-10-01T22:37:22.788Z,100.00
2022-10-01T22:39:55.944Z,100.00
2022-10-01T22:42:30.535Z,100.00
2022-10-01T22:45:01.827Z,100.00
2022-10-01T22:47:30.920Z,100.00
2022-10-01T22:50:12.723Z,100.00
2022-10-01T22:52:46.266Z,100.00
2022-10-01T22:55:26.013Z,100.00
2022-10-01T22:57:59.390Z,100.00
2022-10-01T23:00:26.465Z,100.00
2022-10-01T23:03:07.136Z,100.00
2022-10-01T23:05:40.985Z,100.00
2022-10-01T23:08:16.701Z,100.00
2022-10-01T23:10:44.256Z,100.00
2022-10-01T23:13:18.060Z,100.00
2022-10-01T23:16:11.280Z,100.00
2022-10-01T23:18:57.389Z,100.00
2022-10-01T23:21:35.867Z,100.00
2022-10-01T23:24:14.661Z,100.00
2022-10-01T23:26:56.951Z,100.00
2022-10-01T23:29:24.155Z,100.00
2022-10-01T23:32:00.386Z,100.00
2022-10-01T23:34:41.396Z,100.00
2022-10-01T23:37:17.547Z,100.00
2022-10-01T23:39:51.099Z,100.00
2022-10-01T23:42:21.118Z,100.00
2022-10-01T23:44:52.377Z,100.00
2022-10-01T23:47:22.465Z,100.00
2022-10-01T23:49:52.057Z,100.00
2022-10-01T23:52:25.419Z,100.00
2022-10-01T23:54:56.729Z,100.00
2022-10-01T23:57:32.769Z,100.00
